sensor_id;sensor_type;location;lat;lon;timestamp;P1;durP1;ratioP1;P2;durP2;ratioP2
26516;SDS011;14190;51.342;6.338;2023-09-19T00:01:14;6.55;;;3.60;;
26516;SDS011;14190;51.342;6.338;2023-09-19T00:03:43;11.35;;;3.58;;
26516;SDS011;14190;51.342;6.338;2023-09-19T00:06:11;16.35;;;4.50;;
26516;SDS011;14190;51.342;6.338;2023-09-19T00:08:40;10.38;;;3.52;;
26516;SDS011;14190;51.342;6.338;2023-09-19T00:11:09;7.65;;;3.25;;
26516;SDS011;14190;51.342;6.338;2023-09-19T00:13:37;9.18;;;1.98;;
26516;SDS011;14190;51.342;6.338;2023-09-19T00:16:08;9.03;;;4.17;;
26516;SDS011;14190;51.342;6.338;2023-09-19T00:18:37;7.37;;;3.45;;
26516;SDS011;14190;51.342;6.338;2023-09-19T00:21:04;7.00;;;3.45;;
26516;SDS011;14190;51.342;6.338;2023-09-19T00:23:33;11.03;;;4.72;;
26516;SDS011;14190;51.342;6.338;2023-09-19T00:26:00;9.28;;;2.80;;
26516;SDS011;14190;51.342;6.338;2023-09-19T00:28:28;9.95;;;4.15;;
26516;SDS011;14190;51.342;6.338;2023-09-19T00:30:56;15.15;;;6.83;;
26516;SDS011;14190;51.342;6.338;2023-09-19T00:33:23;10.25;;;3.45;;
26516;SDS011;14190;51.342;6.338;2023-09-19T00:35:51;5.20;;;2.72;;
26516;SDS011;14190;51.342;6.338;2023-09-19T00:38:19;5.30;;;2.47;;
26516;SDS011;14190;51.342;6.338;2023-09-19T00:40:51;10.45;;;2.77;;
26516;SDS011;14190;51.342;6.338;2023-09-19T00:43:19;12.03;;;4.30;;
26516;SDS011;14190;51.342;6.338;2023-09-19T00:45:47;5.90;;;3.33;;
26516;SDS011;14190;51.342;6.338;2023-09-19T00:48:15;8.60;;;5.50;;
26516;SDS011;14190;51.342;6.338;2023-09-19T00:50:43;7.37;;;4.53;;
26516;SDS011;14190;51.342;6.338;2023-09-19T00:53:13;6.90;;;3.52;;
26516;SDS011;14190;51.342;6.338;2023-09-19T00:55:40;11.38;;;3.65;;
26516;SDS011;14190;51.342;6.338;2023-09-19T00:58:08;5.72;;;1.75;;
26516;SDS011;14190;51.342;6.338;2023-09-19T01:00:37;2.87;;;2.37;;
26516;SDS011;14190;51.342;6.338;2023-09-19T01:03:05;6.62;;;2.27;;
26516;SDS011;14190;51.342;6.338;2023-09-19T01:05:33;8.93;;;2.33;;
26516;SDS011;14190;51.342;6.338;2023-09-19T01:08:00;1.85;;;1.05;;
26516;SDS011;14190;51.342;6.338;2023-09-19T01:10:29;10.15;;;3.70;;
26516;SDS011;14190;51.342;6.338;2023-09-19T01:16:03;15.63;;;3.12;;
26516;SDS011;14190;51.342;6.338;2023-09-19T01:19:16;6.80;;;2.70;;
26516;SDS011;14190;51.342;6.338;2023-09-19T01:20:56;8.63;;;1.12;;
26516;SDS011;14190;51.342;6.338;2023-09-19T01:26:30;3.93;;;1.23;;
26516;SDS011;14190;51.342;6.338;2023-09-19T01:31:46;2.85;;;1.47;;
26516;SDS011;14190;51.342;6.338;2023-09-19T01:34:14;1.20;;;0.47;;
26516;SDS011;14190;51.342;6.338;2023-09-19T01:36:41;1.82;;;0.90;;
26516;SDS011;14190;51.342;6.338;2023-09-19T01:39:10;0.53;;;0.40;;
26516;SDS011;14190;51.342;6.338;2023-09-19T01:41:54;2.35;;;0.60;;
26516;SDS011;14190;51.342;6.338;2023-09-19T01:44:29;1.02;;;0.40;;
26516;SDS011;14190;51.342;6.338;2023-09-19T01:46:56;0.90;;;0.47;;
26516;SDS011;14190;51.342;6.338;2023-09-19T01:49:37;2.30;;;0.72;;
26516;SDS011;14190;51.342;6.338;2023-09-19T01:52:07;1.72;;;0.68;;
26516;SDS011;14190;51.342;6.338;2023-09-19T01:54:31;3.33;;;0.85;;
26516;SDS011;14190;51.342;6.338;2023-09-19T01:57:16;5.95;;;0.62;;
26516;SDS011;14190;51.342;6.338;2023-09-19T01:59:45;2.37;;;0.57;;
26516;SDS011;14190;51.342;6.338;2023-09-19T02:02:12;4.12;;;0.82;;
26516;SDS011;14190;51.342;6.338;2023-09-19T02:04:40;3.98;;;1.00;;
26516;SDS011;14190;51.342;6.338;2023-09-19T02:07:08;0.62;;;0.60;;
26516;SDS011;14190;51.342;6.338;2023-09-19T02:09:35;0.37;;;0.37;;
26516;SDS011;14190;51.342;6.338;2023-09-19T02:12:04;6.33;;;1.50;;
26516;SDS011;14190;51.342;6.338;2023-09-19T02:14:31;2.92;;;1.27;;
26516;SDS011;14190;51.342;6.338;2023-09-19T02:16:59;1.45;;;0.85;;
26516;SDS011;14190;51.342;6.338;2023-09-19T02:19:26;1.20;;;0.82;;
26516;SDS011;14190;51.342;6.338;2023-09-19T02:21:55;1.72;;;0.93;;
26516;SDS011;14190;51.342;6.338;2023-09-19T02:24:22;2.22;;;1.27;;
26516;SDS011;14190;51.342;6.338;2023-09-19T02:26:50;2.22;;;1.37;;
26516;SDS011;14190;51.342;6.338;2023-09-19T02:29:18;2.98;;;1.62;;
26516;SDS011;14190;51.342;6.338;2023-09-19T02:31:45;0.82;;;0.68;;
26516;SDS011;14190;51.342;6.338;2023-09-19T02:34:13;4.83;;;1.25;;
26516;SDS011;14190;51.342;6.338;2023-09-19T02:36:42;5.67;;;0.62;;
26516;SDS011;14190;51.342;6.338;2023-09-19T02:39:11;1.42;;;1.00;;
26516;SDS011;14190;51.342;6.338;2023-09-19T02:41:39;1.22;;;0.68;;
26516;SDS011;14190;51.342;6.338;2023-09-19T02:44:07;6.00;;;1.27;;
26516;SDS011;14190;51.342;6.338;2023-09-19T02:46:35;10.58;;;1.55;;
26516;SDS011;14190;51.342;6.338;2023-09-19T02:49:05;10.78;;;1.72;;
26516;SDS011;14190;51.342;6.338;2023-09-19T02:51:33;1.02;;;0.90;;
26516;SDS011;14190;51.342;6.338;2023-09-19T02:54:00;1.60;;;0.65;;
26516;SDS011;14190;51.342;6.338;2023-09-19T02:56:29;5.35;;;1.15;;
26516;SDS011;14190;51.342;6.338;2023-09-19T02:58:58;2.05;;;0.78;;
26516;SDS011;14190;51.342;6.338;2023-09-19T03:01:27;4.70;;;1.65;;
26516;SDS011;14190;51.342;6.338;2023-09-19T03:03:57;2.65;;;1.80;;
26516;SDS011;14190;51.342;6.338;2023-09-19T03:06:24;2.08;;;1.10;;
26516;SDS011;14190;51.342;6.338;2023-09-19T03:08:52;3.58;;;1.47;;
26516;SDS011;14190;51.342;6.338;2023-09-19T03:11:20;3.55;;;1.65;;
26516;SDS011;14190;51.342;6.338;2023-09-19T03:13:51;11.57;;;4.87;;
26516;SDS011;14190;51.342;6.338;2023-09-19T03:16:18;25.27;;;6.47;;
26516;SDS011;14190;51.342;6.338;2023-09-19T03:18:48;10.67;;;4.83;;
26516;SDS011;14190;51.342;6.338;2023-09-19T03:21:16;6.60;;;3.42;;
26516;SDS011;14190;51.342;6.338;2023-09-19T03:23:43;10.80;;;6.25;;
26516;SDS011;14190;51.342;6.338;2023-09-19T03:26:14;12.05;;;4.50;;
26516;SDS011;14190;51.342;6.338;2023-09-19T03:28:42;11.53;;;5.72;;
26516;SDS011;14190;51.342;6.338;2023-09-19T03:31:09;9.15;;;3.40;;
26516;SDS011;14190;51.342;6.338;2023-09-19T03:33:37;2.47;;;1.57;;
26516;SDS011;14190;51.342;6.338;2023-09-19T03:36:04;9.25;;;3.37;;
26516;SDS011;14190;51.342;6.338;2023-09-19T03:38:32;11.22;;;3.55;;
26516;SDS011;14190;51.342;6.338;2023-09-19T03:41:02;10.28;;;3.47;;
26516;SDS011;14190;51.342;6.338;2023-09-19T03:43:31;14.60;;;5.40;;
26516;SDS011;14190;51.342;6.338;2023-09-19T03:46:02;8.30;;;3.53;;
26516;SDS011;14190;51.342;6.338;2023-09-19T03:48:32;4.05;;;2.47;;
26516;SDS011;14190;51.342;6.338;2023-09-19T03:50:59;17.05;;;6.37;;
26516;SDS011;14190;51.342;6.338;2023-09-19T03:53:27;5.47;;;1.40;;
26516;SDS011;14190;51.342;6.338;2023-09-19T03:55:54;6.37;;;2.02;;
26516;SDS011;14190;51.342;6.338;2023-09-19T03:58:22;5.53;;;1.80;;
26516;SDS011;14190;51.342;6.338;2023-09-19T04:00:49;2.25;;;1.12;;
26516;SDS011;14190;51.342;6.338;2023-09-19T04:03:17;6.28;;;2.37;;
26516;SDS011;14190;51.342;6.338;2023-09-19T04:05:46;4.35;;;1.32;;
26516;SDS011;14190;51.342;6.338;2023-09-19T04:08:17;0.65;;;0.65;;
26516;SDS011;14190;51.342;6.338;2023-09-19T04:10:44;4.42;;;0.88;;
26516;SDS011;14190;51.342;6.338;2023-09-19T04:13:12;7.33;;;2.17;;
26516;SDS011;14190;51.342;6.338;2023-09-19T04:15:39;7.10;;;2.37;;
26516;SDS011;14190;51.342;6.338;2023-09-19T04:18:07;2.98;;;0.98;;
26516;SDS011;14190;51.342;6.338;2023-09-19T04:20:34;0.75;;;0.75;;
26516;SDS011;14190;51.342;6.338;2023-09-19T04:23:02;1.95;;;1.27;;
26516;SDS011;14190;51.342;6.338;2023-09-19T04:25:31;5.08;;;3.50;;
26516;SDS011;14190;51.342;6.338;2023-09-19T04:27:59;5.00;;;2.08;;
26516;SDS011;14190;51.342;6.338;2023-09-19T04:30:26;16.65;;;1.40;;
26516;SDS011;14190;51.342;6.338;2023-09-19T04:32:53;2.62;;;1.17;;
26516;SDS011;14190;51.342;6.338;2023-09-19T04:35:21;5.05;;;1.40;;
26516;SDS011;14190;51.342;6.338;2023-09-19T04:37:48;3.92;;;1.50;;
26516;SDS011;14190;51.342;6.338;2023-09-19T04:40:17;2.55;;;1.30;;
26516;SDS011;14190;51.342;6.338;2023-09-19T04:42:45;4.03;;;1.15;;
26516;SDS011;14190;51.342;6.338;2023-09-19T04:45:13;15.13;;;2.33;;
26516;SDS011;14190;51.342;6.338;2023-09-19T04:47:41;4.95;;;2.45;;
26516;SDS011;14190;51.342;6.338;2023-09-19T04:50:10;5.65;;;3.17;;
26516;SDS011;14190;51.342;6.338;2023-09-19T04:52:40;6.58;;;1.05;;
26516;SDS011;14190;51.342;6.338;2023-09-19T04:55:09;8.48;;;3.77;;
26516;SDS011;14190;51.342;6.338;2023-09-19T04:57:37;5.08;;;3.55;;
26516;SDS011;14190;51.342;6.338;2023-09-19T05:00:05;8.83;;;3.55;;
26516;SDS011;14190;51.342;6.338;2023-09-19T05:02:34;13.90;;;5.95;;
26516;SDS011;14190;51.342;6.338;2023-09-19T05:05:02;5.40;;;3.27;;
26516;SDS011;14190;51.342;6.338;2023-09-19T05:07:31;5.17;;;3.25;;
26516;SDS011;14190;51.342;6.338;2023-09-19T05:09:58;15.23;;;4.70;;
26516;SDS011;14190;51.342;6.338;2023-09-19T05:12:26;12.73;;;3.37;;
26516;SDS011;14190;51.342;6.338;2023-09-19T05:14:53;7.28;;;3.40;;
26516;SDS011;14190;51.342;6.338;2023-09-19T05:17:21;22.70;;;3.10;;
26516;SDS011;14190;51.342;6.338;2023-09-19T05:19:48;9.28;;;3.37;;
26516;SDS011;14190;51.342;6.338;2023-09-19T05:22:15;7.50;;;2.27;;
26516;SDS011;14190;51.342;6.338;2023-09-19T05:24:49;2.00;;;1.62;;
26516;SDS011;14190;51.342;6.338;2023-09-19T05:27:14;1.70;;;0.80;;
26516;SDS011;14190;51.342;6.338;2023-09-19T05:29:43;4.25;;;2.33;;
26516;SDS011;14190;51.342;6.338;2023-09-19T05:32:11;2.87;;;1.15;;
26516;SDS011;14190;51.342;6.338;2023-09-19T05:34:39;7.37;;;3.17;;
26516;SDS011;14190;51.342;6.338;2023-09-19T05:37:06;6.00;;;2.65;;
26516;SDS011;14190;51.342;6.338;2023-09-19T05:39:34;7.40;;;3.58;;
26516;SDS011;14190;51.342;6.338;2023-09-19T05:42:03;5.65;;;3.60;;
26516;SDS011;14190;51.342;6.338;2023-09-19T05:44:31;9.98;;;1.77;;
26516;SDS011;14190;51.342;6.338;2023-09-19T05:46:59;3.95;;;1.37;;
26516;SDS011;14190;51.342;6.338;2023-09-19T05:49:27;11.53;;;4.50;;
26516;SDS011;14190;51.342;6.338;2023-09-19T05:51:54;15.78;;;4.80;;
26516;SDS011;14190;51.342;6.338;2023-09-19T05:54:23;6.15;;;4.20;;
26516;SDS011;14190;51.342;6.338;2023-09-19T05:56:51;12.58;;;3.00;;
26516;SDS011;14190;51.342;6.338;2023-09-19T05:59:19;3.77;;;2.00;;
26516;SDS011;14190;51.342;6.338;2023-09-19T06:01:47;7.05;;;1.92;;
26516;SDS011;14190;51.342;6.338;2023-09-19T06:04:14;2.22;;;1.07;;
26516;SDS011;14190;51.342;6.338;2023-09-19T06:06:41;5.20;;;3.05;;
26516;SDS011;14190;51.342;6.338;2023-09-19T06:09:09;15.60;;;3.92;;
26516;SDS011;14190;51.342;6.338;2023-09-19T06:11:36;23.35;;;2.62;;
26516;SDS011;14190;51.342;6.338;2023-09-19T06:14:03;2.45;;;1.82;;
26516;SDS011;14190;51.342;6.338;2023-09-19T06:16:31;6.97;;;3.37;;
26516;SDS011;14190;51.342;6.338;2023-09-19T06:21:28;9.83;;;3.87;;
26516;SDS011;14190;51.342;6.338;2023-09-19T06:23:55;11.60;;;2.98;;
26516;SDS011;14190;51.342;6.338;2023-09-19T06:26:24;5.80;;;2.55;;
26516;SDS011;14190;51.342;6.338;2023-09-19T06:28:53;15.68;;;4.67;;
26516;SDS011;14190;51.342;6.338;2023-09-19T06:31:29;10.05;;;4.90;;
26516;SDS011;14190;51.342;6.338;2023-09-19T06:33:53;9.73;;;4.15;;
26516;SDS011;14190;51.342;6.338;2023-09-19T06:36:22;11.33;;;5.17;;
26516;SDS011;14190;51.342;6.338;2023-09-19T06:38:50;9.63;;;3.65;;
26516;SDS011;14190;51.342;6.338;2023-09-19T06:41:20;5.97;;;2.67;;
26516;SDS011;14190;51.342;6.338;2023-09-19T06:43:49;7.30;;;2.77;;
26516;SDS011;14190;51.342;6.338;2023-09-19T06:46:18;8.40;;;2.58;;
26516;SDS011;14190;51.342;6.338;2023-09-19T06:48:46;13.60;;;3.35;;
26516;SDS011;14190;51.342;6.338;2023-09-19T06:51:14;5.30;;;2.67;;
26516;SDS011;14190;51.342;6.338;2023-09-19T06:53:42;12.28;;;3.58;;
26516;SDS011;14190;51.342;6.338;2023-09-19T06:56:10;8.75;;;2.70;;
26516;SDS011;14190;51.342;6.338;2023-09-19T06:58:37;14.63;;;6.45;;
26516;SDS011;14190;51.342;6.338;2023-09-19T07:01:04;6.97;;;2.47;;
26516;SDS011;14190;51.342;6.338;2023-09-19T07:03:32;5.53;;;3.08;;
26516;SDS011;14190;51.342;6.338;2023-09-19T07:06:00;5.70;;;2.87;;
26516;SDS011;14190;51.342;6.338;2023-09-19T07:08:27;14.07;;;3.47;;
26516;SDS011;14190;51.342;6.338;2023-09-19T07:10:55;7.55;;;2.47;;
26516;SDS011;14190;51.342;6.338;2023-09-19T07:13:23;7.97;;;4.08;;
26516;SDS011;14190;51.342;6.338;2023-09-19T07:15:51;8.73;;;3.90;;
26516;SDS011;14190;51.342;6.338;2023-09-19T07:18:19;7.33;;;2.20;;
26516;SDS011;14190;51.342;6.338;2023-09-19T07:20:46;8.75;;;1.75;;
26516;SDS011;14190;51.342;6.338;2023-09-19T07:23:20;3.90;;;2.17;;
26516;SDS011;14190;51.342;6.338;2023-09-19T07:25:48;3.75;;;1.60;;
26516;SDS011;14190;51.342;6.338;2023-09-19T07:28:16;3.95;;;1.32;;
26516;SDS011;14190;51.342;6.338;2023-09-19T07:30:43;6.37;;;2.90;;
26516;SDS011;14190;51.342;6.338;2023-09-19T07:33:11;9.33;;;2.15;;
26516;SDS011;14190;51.342;6.338;2023-09-19T07:35:38;3.62;;;1.47;;
26516;SDS011;14190;51.342;6.338;2023-09-19T07:38:09;4.65;;;2.40;;
26516;SDS011;14190;51.342;6.338;2023-09-19T07:40:37;2.95;;;1.27;;
26516;SDS011;14190;51.342;6.338;2023-09-19T07:43:05;3.83;;;2.10;;
26516;SDS011;14190;51.342;6.338;2023-09-19T07:45:32;9.30;;;4.25;;
26516;SDS011;14190;51.342;6.338;2023-09-19T07:48:00;2.75;;;1.82;;
26516;SDS011;14190;51.342;6.338;2023-09-19T07:50:29;4.92;;;1.47;;
26516;SDS011;14190;51.342;6.338;2023-09-19T07:52:57;8.40;;;3.10;;
26516;SDS011;14190;51.342;6.338;2023-09-19T07:55:27;4.05;;;1.98;;
26516;SDS011;14190;51.342;6.338;2023-09-19T07:57:55;3.98;;;2.55;;
26516;SDS011;14190;51.342;6.338;2023-09-19T08:00:24;1.07;;;0.93;;
26516;SDS011;14190;51.342;6.338;2023-09-19T08:02:51;3.27;;;1.75;;
26516;SDS011;14190;51.342;6.338;2023-09-19T08:05:18;9.63;;;3.10;;
26516;SDS011;14190;51.342;6.338;2023-09-19T08:07:47;4.55;;;2.15;;
26516;SDS011;14190;51.342;6.338;2023-09-19T08:10:16;7.25;;;2.47;;
26516;SDS011;14190;51.342;6.338;2023-09-19T08:12:46;12.45;;;3.42;;
26516;SDS011;14190;51.342;6.338;2023-09-19T08:15:17;11.20;;;3.52;;
26516;SDS011;14190;51.342;6.338;2023-09-19T08:17:48;4.67;;;1.85;;
26516;SDS011;14190;51.342;6.338;2023-09-19T08:20:16;6.08;;;2.40;;
26516;SDS011;14190;51.342;6.338;2023-09-19T08:22:48;11.28;;;4.62;;
26516;SDS011;14190;51.342;6.338;2023-09-19T08:25:16;2.75;;;1.52;;
26516;SDS011;14190;51.342;6.338;2023-09-19T08:27:47;3.98;;;0.82;;
26516;SDS011;14190;51.342;6.338;2023-09-19T08:30:16;4.62;;;1.40;;
26516;SDS011;14190;51.342;6.338;2023-09-19T08:32:44;2.90;;;1.52;;
26516;SDS011;14190;51.342;6.338;2023-09-19T08:35:12;2.77;;;1.95;;
26516;SDS011;14190;51.342;6.338;2023-09-19T08:37:41;1.90;;;0.40;;
26516;SDS011;14190;51.342;6.338;2023-09-19T08:40:11;2.75;;;1.02;;
26516;SDS011;14190;51.342;6.338;2023-09-19T08:42:53;3.58;;;2.72;;
26516;SDS011;14190;51.342;6.338;2023-09-19T08:45:21;2.33;;;1.27;;
26516;SDS011;14190;51.342;6.338;2023-09-19T08:47:59;4.97;;;2.17;;
26516;SDS011;14190;51.342;6.338;2023-09-19T08:50:28;3.92;;;2.20;;
26516;SDS011;14190;51.342;6.338;2023-09-19T08:52:59;6.17;;;1.42;;
26516;SDS011;14190;51.342;6.338;2023-09-19T08:55:30;11.83;;;3.70;;
26516;SDS011;14190;51.342;6.338;2023-09-19T08:57:59;7.10;;;2.52;;
26516;SDS011;14190;51.342;6.338;2023-09-19T09:00:26;9.70;;;1.95;;
26516;SDS011;14190;51.342;6.338;2023-09-19T09:02:54;3.45;;;1.35;;
26516;SDS011;14190;51.342;6.338;2023-09-19T09:05:22;3.02;;;1.85;;
26516;SDS011;14190;51.342;6.338;2023-09-19T09:07:50;1.87;;;1.05;;
26516;SDS011;14190;51.342;6.338;2023-09-19T09:10:21;6.50;;;2.05;;
26516;SDS011;14190;51.342;6.338;2023-09-19T09:12:52;4.33;;;2.60;;
26516;SDS011;14190;51.342;6.338;2023-09-19T09:15:22;2.98;;;1.70;;
26516;SDS011;14190;51.342;6.338;2023-09-19T09:17:50;6.40;;;2.72;;
26516;SDS011;14190;51.342;6.338;2023-09-19T09:20:20;6.85;;;2.92;;
26516;SDS011;14190;51.342;6.338;2023-09-19T09:22:55;4.00;;;2.67;;
26516;SDS011;14190;51.342;6.338;2023-09-19T09:25:22;2.40;;;1.45;;
26516;SDS011;14190;51.342;6.338;2023-09-19T09:28:02;6.40;;;1.35;;
26516;SDS011;14190;51.342;6.338;2023-09-19T09:30:36;3.17;;;1.17;;
26516;SDS011;14190;51.342;6.338;2023-09-19T09:33:13;5.28;;;1.85;;
26516;SDS011;14190;51.342;6.338;2023-09-19T09:35:48;2.12;;;1.30;;
26516;SDS011;14190;51.342;6.338;2023-09-19T09:38:18;5.12;;;3.95;;
26516;SDS011;14190;51.342;6.338;2023-09-19T09:40:47;2.35;;;2.08;;
26516;SDS011;14190;51.342;6.338;2023-09-19T09:43:26;3.85;;;1.57;;
26516;SDS011;14190;51.342;6.338;2023-09-19T09:46:06;5.05;;;2.45;;
26516;SDS011;14190;51.342;6.338;2023-09-19T09:51:40;1.72;;;0.70;;
26516;SDS011;14190;51.342;6.338;2023-09-19T09:54:13;4.00;;;2.30;;
26516;SDS011;14190;51.342;6.338;2023-09-19T09:56:58;6.58;;;3.65;;
26516;SDS011;14190;51.342;6.338;2023-09-19T10:02:17;7.25;;;1.77;;
26516;SDS011;14190;51.342;6.338;2023-09-19T10:04:52;5.72;;;2.30;;
26516;SDS011;14190;51.342;6.338;2023-09-19T10:07:29;13.93;;;3.55;;
26516;SDS011;14190;51.342;6.338;2023-09-19T10:09:54;5.55;;;2.42;;
26516;SDS011;14190;51.342;6.338;2023-09-19T10:12:23;2.10;;;1.80;;
26516;SDS011;14190;51.342;6.338;2023-09-19T10:14:52;2.92;;;2.08;;
26516;SDS011;14190;51.342;6.338;2023-09-19T10:17:22;6.05;;;2.45;;
26516;SDS011;14190;51.342;6.338;2023-09-19T10:19:54;7.03;;;1.62;;
26516;SDS011;14190;51.342;6.338;2023-09-19T10:22:27;2.60;;;1.27;;
26516;SDS011;14190;51.342;6.338;2023-09-19T10:24:57;1.57;;;1.40;;
26516;SDS011;14190;51.342;6.338;2023-09-19T10:27:26;1.60;;;1.00;;
26516;SDS011;14190;51.342;6.338;2023-09-19T10:29:55;5.90;;;1.87;;
26516;SDS011;14190;51.342;6.338;2023-09-19T10:32:26;3.05;;;2.08;;
26516;SDS011;14190;51.342;6.338;2023-09-19T10:34:55;2.25;;;2.00;;
26516;SDS011;14190;51.342;6.338;2023-09-19T10:37:22;5.17;;;1.55;;
26516;SDS011;14190;51.342;6.338;2023-09-19T10:42:19;3.33;;;2.27;;
26516;SDS011;14190;51.342;6.338;2023-09-19T10:44:48;2.10;;;1.35;;
26516;SDS011;14190;51.342;6.338;2023-09-19T10:47:16;6.70;;;2.55;;
26516;SDS011;14190;51.342;6.338;2023-09-19T10:49:45;16.42;;;2.45;;
26516;SDS011;14190;51.342;6.338;2023-09-19T10:52:17;0.53;;;0.53;;
26516;SDS011;14190;51.342;6.338;2023-09-19T10:54:46;2.25;;;1.27;;
26516;SDS011;14190;51.342;6.338;2023-09-19T10:57:21;1.15;;;1.00;;
26516;SDS011;14190;51.342;6.338;2023-09-19T11:00:04;5.22;;;1.85;;
26516;SDS011;14190;51.342;6.338;2023-09-19T11:05:35;1.92;;;0.72;;
26516;SDS011;14190;51.342;6.338;2023-09-19T11:08:04;0.60;;;0.40;;
26516;SDS011;14190;51.342;6.338;2023-09-19T11:10:53;1.15;;;0.68;;
26516;SDS011;14190;51.342;6.338;2023-09-19T11:13:16;1.52;;;0.60;;
26516;SDS011;14190;51.342;6.338;2023-09-19T11:18:59;4.37;;;1.27;;
26516;SDS011;14190;51.342;6.338;2023-09-19T11:20:48;2.12;;;1.32;;
26516;SDS011;14190;51.342;6.338;2023-09-19T11:23:17;4.45;;;0.53;;
26516;SDS011;14190;51.342;6.338;2023-09-19T11:25:47;0.43;;;0.40;;
26516;SDS011;14190;51.342;6.338;2023-09-19T11:30:45;4.70;;;1.07;;
26516;SDS011;14190;51.342;6.338;2023-09-19T11:36:28;0.53;;;0.53;;
26516;SDS011;14190;51.342;6.338;2023-09-19T11:38:15;1.45;;;0.45;;
26516;SDS011;14190;51.342;6.338;2023-09-19T11:40:44;0.70;;;0.35;;
26516;SDS011;14190;51.342;6.338;2023-09-19T11:43:27;2.50;;;0.53;;
26516;SDS011;14190;51.342;6.338;2023-09-19T11:48:25;4.10;;;0.40;;
26516;SDS011;14190;51.342;6.338;2023-09-19T11:50:53;0.50;;;0.50;;
26516;SDS011;14190;51.342;6.338;2023-09-19T11:53:21;1.87;;;0.88;;
26516;SDS011;14190;51.342;6.338;2023-09-19T11:55:50;0.42;;;0.40;;
26516;SDS011;14190;51.342;6.338;2023-09-19T11:58:19;2.50;;;0.57;;
26516;SDS011;14190;51.342;6.338;2023-09-19T12:00:46;9.83;;;0.90;;
26516;SDS011;14190;51.342;6.338;2023-09-19T12:03:15;14.13;;;1.45;;
26516;SDS011;14190;51.342;6.338;2023-09-19T12:05:44;2.22;;;0.70;;
26516;SDS011;14190;51.342;6.338;2023-09-19T12:08:11;0.42;;;0.30;;
26516;SDS011;14190;51.342;6.338;2023-09-19T12:10:47;1.70;;;0.45;;
26516;SDS011;14190;51.342;6.338;2023-09-19T12:13:16;3.77;;;0.75;;
26516;SDS011;14190;51.342;6.338;2023-09-19T12:15:44;0.23;;;0.23;;
26516;SDS011;14190;51.342;6.338;2023-09-19T12:18:26;3.77;;;0.67;;
26516;SDS011;14190;51.342;6.338;2023-09-19T12:20:54;2.00;;;0.50;;
26516;SDS011;14190;51.342;6.338;2023-09-19T12:23:24;2.43;;;1.33;;
26516;SDS011;14190;51.342;6.338;2023-09-19T12:25:54;3.12;;;0.68;;
26516;SDS011;14190;51.342;6.338;2023-09-19T12:28:24;0.50;;;0.42;;
26516;SDS011;14190;51.342;6.338;2023-09-19T12:30:52;1.50;;;0.57;;
26516;SDS011;14190;51.342;6.338;2023-09-19T12:33:24;5.00;;;0.53;;
26516;SDS011;14190;51.342;6.338;2023-09-19T12:35:52;0.98;;;0.40;;
26516;SDS011;14190;51.342;6.338;2023-09-19T12:38:24;0.65;;;0.30;;
26516;SDS011;14190;51.342;6.338;2023-09-19T12:40:51;0.82;;;0.40;;
26516;SDS011;14190;51.342;6.338;2023-09-19T12:43:19;0.53;;;0.30;;
26516;SDS011;14190;51.342;6.338;2023-09-19T12:45:47;0.70;;;0.30;;
26516;SDS011;14190;51.342;6.338;2023-09-19T12:48:23;0.90;;;0.50;;
26516;SDS011;14190;51.342;6.338;2023-09-19T12:53:34;1.95;;;0.70;;
26516;SDS011;14190;51.342;6.338;2023-09-19T12:56:03;0.62;;;0.30;;
26516;SDS011;14190;51.342;6.338;2023-09-19T12:58:33;3.52;;;0.62;;
26516;SDS011;14190;51.342;6.338;2023-09-19T13:01:13;3.47;;;1.37;;
26516;SDS011;14190;51.342;6.338;2023-09-19T13:03:32;0.47;;;0.23;;
26516;SDS011;14190;51.342;6.338;2023-09-19T13:06:02;1.37;;;0.45;;
26516;SDS011;14190;51.342;6.338;2023-09-19T13:08:31;1.25;;;0.20;;
26516;SDS011;14190;51.342;6.338;2023-09-19T13:11:06;0.30;;;0.30;;
26516;SDS011;14190;51.342;6.338;2023-09-19T13:13:36;0.88;;;0.75;;
26516;SDS011;14190;51.342;6.338;2023-09-19T13:16:04;0.80;;;0.30;;
26516;SDS011;14190;51.342;6.338;2023-09-19T13:18:43;0.63;;;0.63;;
26516;SDS011;14190;51.342;6.338;2023-09-19T13:21:13;2.22;;;0.80;;
26516;SDS011;14190;51.342;6.338;2023-09-19T13:23:51;0.33;;;0.33;;
26516;SDS011;14190;51.342;6.338;2023-09-19T13:26:18;4.17;;;0.40;;
26516;SDS011;14190;51.342;6.338;2023-09-19T13:28:46;2.75;;;1.10;;
26516;SDS011;14190;51.342;6.338;2023-09-19T13:31:15;2.58;;;0.40;;
26516;SDS011;14190;51.342;6.338;2023-09-19T13:33:43;0.33;;;0.20;;
26516;SDS011;14190;51.342;6.338;2023-09-19T13:36:11;4.00;;;0.55;;
26516;SDS011;14190;51.342;6.338;2023-09-19T13:38:41;0.27;;;0.27;;
26516;SDS011;14190;51.342;6.338;2023-09-19T13:41:12;0.13;;;0.13;;
26516;SDS011;14190;51.342;6.338;2023-09-19T13:43:40;2.55;;;0.30;;
26516;SDS011;14190;51.342;6.338;2023-09-19T13:46:07;0.15;;;0.15;;
26516;SDS011;14190;51.342;6.338;2023-09-19T13:48:38;0.20;;;0.20;;
26516;SDS011;14190;51.342;6.338;2023-09-19T13:51:05;0.20;;;0.20;;
26516;SDS011;14190;51.342;6.338;2023-09-19T13:53:33;0.37;;;0.37;;
26516;SDS011;14190;51.342;6.338;2023-09-19T13:56:00;3.05;;;0.65;;
26516;SDS011;14190;51.342;6.338;2023-09-19T13:58:28;0.20;;;0.17;;
26516;SDS011;14190;51.342;6.338;2023-09-19T14:00:57;1.25;;;0.37;;
26516;SDS011;14190;51.342;6.338;2023-09-19T14:03:24;2.22;;;0.28;;
26516;SDS011;14190;51.342;6.338;2023-09-19T14:05:54;0.33;;;0.20;;
26516;SDS011;14190;51.342;6.338;2023-09-19T14:08:21;1.27;;;0.62;;
26516;SDS011;14190;51.342;6.338;2023-09-19T14:10:49;1.45;;;0.40;;
26516;SDS011;14190;51.342;6.338;2023-09-19T14:13:17;0.57;;;0.45;;
26516;SDS011;14190;51.342;6.338;2023-09-19T14:15:44;0.17;;;0.17;;
26516;SDS011;14190;51.342;6.338;2023-09-19T14:18:11;0.10;;;0.10;;
26516;SDS011;14190;51.342;6.338;2023-09-19T14:20:39;0.30;;;0.30;;
26516;SDS011;14190;51.342;6.338;2023-09-19T14:23:08;0.10;;;0.10;;
26516;SDS011;14190;51.342;6.338;2023-09-19T14:25:35;1.20;;;0.33;;
26516;SDS011;14190;51.342;6.338;2023-09-19T14:28:05;0.35;;;0.23;;
26516;SDS011;14190;51.342;6.338;2023-09-19T14:30:34;0.72;;;0.47;;
26516;SDS011;14190;51.342;6.338;2023-09-19T14:33:03;0.68;;;0.40;;
26516;SDS011;14190;51.342;6.338;2023-09-19T14:35:32;5.45;;;0.45;;
26516;SDS011;14190;51.342;6.338;2023-09-19T14:37:59;1.37;;;1.37;;
26516;SDS011;14190;51.342;6.338;2023-09-19T14:40:27;0.20;;;0.20;;
26516;SDS011;14190;51.342;6.338;2023-09-19T14:42:54;0.20;;;0.20;;
26516;SDS011;14190;51.342;6.338;2023-09-19T14:45:22;0.23;;;0.23;;
26516;SDS011;14190;51.342;6.338;2023-09-19T14:47:50;0.10;;;0.10;;
26516;SDS011;14190;51.342;6.338;2023-09-19T14:50:19;3.87;;;0.15;;
26516;SDS011;14190;51.342;6.338;2023-09-19T14:52:46;0.30;;;0.30;;
26516;SDS011;14190;51.342;6.338;2023-09-19T14:55:15;3.33;;;0.40;;
26516;SDS011;14190;51.342;6.338;2023-09-19T14:57:43;0.20;;;0.20;;
26516;SDS011;14190;51.342;6.338;2023-09-19T15:00:12;0.20;;;0.20;;
26516;SDS011;14190;51.342;6.338;2023-09-19T15:02:40;0.30;;;0.30;;
26516;SDS011;14190;51.342;6.338;2023-09-19T15:05:07;0.20;;;0.20;;
26516;SDS011;14190;51.342;6.338;2023-09-19T15:07:37;1.10;;;0.30;;
26516;SDS011;14190;51.342;6.338;2023-09-19T15:10:05;1.25;;;0.33;;
26516;SDS011;14190;51.342;6.338;2023-09-19T15:12:34;3.17;;;0.45;;
26516;SDS011;14190;51.342;6.338;2023-09-19T15:15:02;1.02;;;0.30;;
26516;SDS011;14190;51.342;6.338;2023-09-19T15:17:29;0.23;;;0.23;;
26516;SDS011;14190;51.342;6.338;2023-09-19T15:19:56;0.37;;;0.30;;
26516;SDS011;14190;51.342;6.338;2023-09-19T15:22:24;2.92;;;0.50;;
26516;SDS011;14190;51.342;6.338;2023-09-19T15:24:51;0.55;;;0.37;;
26516;SDS011;14190;51.342;6.338;2023-09-19T15:27:19;0.17;;;0.17;;
26516;SDS011;14190;51.342;6.338;2023-09-19T15:29:46;1.00;;;0.30;;
26516;SDS011;14190;51.342;6.338;2023-09-19T15:32:13;0.50;;;0.10;;